createdAt,value
2023-03-26T00:01:02.090Z,8.48
2023-03-26T00:03:30.169Z,8.43
2023-03-26T00:06:04.130Z,8.38
2023-03-26T00:08:31.534Z,8.31
2023-03-26T00:11:00.596Z,8.29
2023-03-26T00:13:28.389Z,8.31
2023-03-26T00:15:55.977Z,8.26
2023-03-26T00:18:30.171Z,8.22
2023-03-26T00:21:01.963Z,8.25
2023-03-26T00:23:30.358Z,8.09
2023-03-26T00:25:57.937Z,8.09
2023-03-26T00:28:26.404Z,8.04
2023-03-26T00:31:01.644Z,8.14
2023-03-26T00:33:29.079Z,8.20
2023-03-26T00:35:59.160Z,8.22
2023-03-26T00:38:27.894Z,8.12
2023-03-26T00:40:55.308Z,8.12
2023-03-26T00:43:22.669Z,7.99
2023-03-26T00:45:51.744Z,7.83
2023-03-26T00:48:19.221Z,7.97
2023-03-26T00:50:47.003Z,7.87
2023-03-26T00:53:14.987Z,7.87
2023-03-26T00:55:43.070Z,7.97
2023-03-26T00:58:10.950Z,7.88
2023-03-26T01:00:51.091Z,7.71
2023-03-26T01:03:27.696Z,7.33
2023-03-26T01:06:22.404Z,7.05
2023-03-26T01:08:50.751Z,7.19
2023-03-26T01:11:21.040Z,7.27
2023-03-26T01:13:52.679Z,7.30
2023-03-26T01:16:26.893Z,7.27
2023-03-26T01:18:54.521Z,7.26
2023-03-26T01:21:23.350Z,7.20
2023-03-26T01:23:59.834Z,7.12
2023-03-26T01:26:39.118Z,7.01
2023-03-26T01:29:08.458Z,6.98
2023-03-26T01:31:47.866Z,6.85
2023-03-26T01:34:23.961Z,6.87
2023-03-26T01:36:59.234Z,6.70
2023-03-26T01:39:31.956Z,6.73
2023-03-26T01:42:03.226Z,6.78
2023-03-26T01:44:53.763Z,6.73
2023-03-26T01:47:21.554Z,6.85
2023-03-26T01:49:48.869Z,6.77
2023-03-26T01:52:25.189Z,6.58
2023-03-26T01:54:54.368Z,6.57
2023-03-26T01:57:40.371Z,6.75
2023-03-26T02:00:28.428Z,6.51
2023-03-26T02:03:05.062Z,6.54
2023-03-26T02:05:35.948Z,6.48
2023-03-26T02:08:21.176Z,6.48
2023-03-26T02:10:52.677Z,6.40
2023-03-26T02:13:20.122Z,6.17
2023-03-26T02:16:01.796Z,6.17
2023-03-26T02:18:39.133Z,6.24
2023-03-26T02:21:10.176Z,6.26
2023-03-26T02:23:41.454Z,6.38
2023-03-26T02:26:10.473Z,6.43
2023-03-26T02:28:49.609Z,6.55
2023-03-26T02:31:19.404Z,6.58
2023-03-26T02:33:47.820Z,6.57
2023-03-26T02:36:16.252Z,6.58
2023-03-26T02:38:44.345Z,6.61
2023-03-26T02:41:11.962Z,6.58
2023-03-26T02:43:52.109Z,6.44
2023-03-26T02:46:23.037Z,6.43
2023-03-26T02:49:08.310Z,6.33
2023-03-26T02:51:36.082Z,6.20
2023-03-26T02:54:07.269Z,6.12
2023-03-26T02:56:34.666Z,6.02
2023-03-26T02:59:37.268Z,6.15
2023-03-26T03:02:24.503Z,6.27
2023-03-26T03:05:01.590Z,6.33
2023-03-26T03:07:32.979Z,6.41
2023-03-26T03:10:02.786Z,6.40
2023-03-26T03:12:48.457Z,6.47
2023-03-26T03:15:16.113Z,6.44
2023-03-26T03:17:43.641Z,6.47
2023-03-26T03:20:14.335Z,6.30
2023-03-26T03:22:42.368Z,6.30
2023-03-26T03:25:14.368Z,6.24
2023-03-26T03:27:42.972Z,6.15
2023-03-26T03:30:13.563Z,6.02
2023-03-26T03:32:40.996Z,6.06
2023-03-26T03:35:09.347Z,5.94
2023-03-26T03:37:36.821Z,5.88
2023-03-26T03:40:08.372Z,5.94
2023-03-26T03:42:36.140Z,6.02
2023-03-26T03:45:06.137Z,5.94
2023-03-26T03:47:59.598Z,5.99
2023-03-26T03:50:35.881Z,6.07
2023-03-26T03:53:19.436Z,6.19
2023-03-26T03:55:53.436Z,6.34
2023-03-26T03:58:24.362Z,6.26
2023-03-26T04:00:54.257Z,6.30
2023-03-26T04:03:47.807Z,6.17
2023-03-26T04:06:19.126Z,6.20
2023-03-26T04:08:52.117Z,6.15
2023-03-26T04:11:19.691Z,6.34
2023-03-26T04:14:22.271Z,6.29
2023-03-26T04:16:59.167Z,6.30
2023-03-26T04:19:28.933Z,6.41
2023-03-26T04:21:56.224Z,6.55
2023-03-26T04:24:24.615Z,6.47
2023-03-26T04:27:27.506Z,6.57
2023-03-26T04:30:03.017Z,6.64
2023-03-26T04:32:34.329Z,6.44
2023-03-26T04:35:04.188Z,6.48
2023-03-26T04:37:40.016Z,6.34
2023-03-26T04:40:16.018Z,6.65
2023-03-26T04:43:18.629Z,6.77
2023-03-26T04:46:06.452Z,6.95
2023-03-26T04:48:41.654Z,7.05
2023-03-26T04:51:18.410Z,7.09
2023-03-26T04:54:00.042Z,6.91
2023-03-26T04:56:33.542Z,6.98
2023-03-26T04:59:33.358Z,7.09
2023-03-26T05:02:02.226Z,7.09
2023-03-26T05:04:39.640Z,7.18
2023-03-26T05:07:09.575Z,7.34
2023-03-26T05:09:43.229Z,7.20
2023-03-26T05:12:13.144Z,7.16
2023-03-26T05:14:52.153Z,7.05
2023-03-26T05:17:41.585Z,7.22
2023-03-26T05:20:21.802Z,7.42
2023-03-26T05:22:49.536Z,7.49
2023-03-26T05:25:23.741Z,7.43
2023-03-26T05:27:51.464Z,7.18
2023-03-26T05:30:20.860Z,7.08
2023-03-26T05:32:52.284Z,7.09
2023-03-26T05:35:24.447Z,7.27
2023-03-26T05:37:51.870Z,7.27
2023-03-26T05:40:23.185Z,7.37
2023-03-26T05:42:59.838Z,7.50
2023-03-26T05:45:47.396Z,7.60
2023-03-26T05:48:35.002Z,7.49
2023-03-26T05:51:02.313Z,7.63
2023-03-26T05:53:32.331Z,7.85
2023-03-26T05:56:18.500Z,7.90
2023-03-26T05:59:04.243Z,7.90
2023-03-26T06:01:57.587Z,7.98
2023-03-26T06:04:47.943Z,7.88
2023-03-26T06:07:47.418Z,7.92
2023-03-26T06:10:18.476Z,7.91
2023-03-26T06:12:46.848Z,8.11
2023-03-26T06:15:14.304Z,8.21
2023-03-26T06:18:00.114Z,8.48
2023-03-26T06:20:33.641Z,8.62
2023-03-26T06:23:06.661Z,8.99
2023-03-26T06:26:00.563Z,8.83
2023-03-26T06:28:49.252Z,8.76
2023-03-26T06:31:37.636Z,8.62
2023-03-26T06:34:40.333Z,8.69
2023-03-26T06:37:07.937Z,8.88
2023-03-26T06:39:35.847Z,9.25
2023-03-26T06:42:13.080Z,9.49
2023-03-26T06:45:04.651Z,9.86
2023-03-26T06:47:34.891Z,10.37
2023-03-26T06:50:21.034Z,10.64
2023-03-26T06:53:14.351Z,11.79
2023-03-26T06:55:41.898Z,12.87
2023-03-26T06:58:35.392Z,13.15
2023-03-26T07:01:21.509Z,12.28
2023-03-26T07:04:24.076Z,11.24
2023-03-26T07:07:18.307Z,10.88
2023-03-26T07:10:04.656Z,11.05
2023-03-26T07:12:56.793Z,11.15
2023-03-26T07:15:42.187Z,11.24
2023-03-26T07:18:20.647Z,11.37
2023-03-26T07:20:49.409Z,11.24
2023-03-26T07:23:20.936Z,11.26
2023-03-26T07:25:58.465Z,11.37
2023-03-26T07:29:04.019Z,11.15
2023-03-26T07:31:42.265Z,10.85
2023-03-26T07:34:49.203Z,10.59
2023-03-26T07:37:59.470Z,10.58
2023-03-26T07:40:48.131Z,10.44
2023-03-26T07:43:38.948Z,10.45
2023-03-26T07:46:12.907Z,10.47
2023-03-26T07:48:51.976Z,10.52
2023-03-26T07:51:33.478Z,10.83
2023-03-26T07:54:10.811Z,11.17
2023-03-26T07:57:11.941Z,11.36
2023-03-26T08:00:15.315Z,11.38
2023-03-26T08:03:22.405Z,11.60
2023-03-26T08:06:14.782Z,11.56
2023-03-26T08:09:17.629Z,11.75
2023-03-26T08:12:26.526Z,11.57
2023-03-26T08:15:03.410Z,12.37
2023-03-26T08:17:42.841Z,12.26
2023-03-26T08:20:34.402Z,12.43
2023-03-26T08:23:09.584Z,12.88
2023-03-26T08:26:02.538Z,12.90
2023-03-26T08:28:46.148Z,12.88
2023-03-26T08:31:13.808Z,13.21
2023-03-26T08:33:41.215Z,12.98
2023-03-26T08:36:09.878Z,13.04
2023-03-26T08:38:37.255Z,13.01
2023-03-26T08:41:10.781Z,12.81
2023-03-26T08:43:50.344Z,12.70
2023-03-26T08:46:32.923Z,12.67
2023-03-26T08:49:09.941Z,12.50
2023-03-26T08:51:52.288Z,12.54
2023-03-26T08:54:41.466Z,12.52
2023-03-26T08:57:41.054Z,12.83
2023-03-26T09:00:36.915Z,12.72
2023-03-26T09:03:11.428Z,12.66
2023-03-26T09:05:45.117Z,12.54
2023-03-26T09:08:34.264Z,12.45
2023-03-26T09:11:19.765Z,12.28
2023-03-26T09:14:09.178Z,12.21
2023-03-26T09:17:01.446Z,12.16
2023-03-26T09:19:56.570Z,12.22
2023-03-26T09:22:48.020Z,12.21
2023-03-26T09:25:30.546Z,12.43
2023-03-26T09:28:25.856Z,12.35
2023-03-26T09:31:20.690Z,12.28
2023-03-26T09:33:56.204Z,12.32
2023-03-26T09:36:23.523Z,12.42
2023-03-26T09:39:08.912Z,12.53
2023-03-26T09:41:43.495Z,12.52
2023-03-26T09:44:20.116Z,12.30
2023-03-26T09:46:50.620Z,12.46
2023-03-26T09:49:25.186Z,12.33
2023-03-26T09:52:10.864Z,12.45
2023-03-26T09:54:51.798Z,12.52
2023-03-26T09:57:26.819Z,12.76
2023-03-26T09:59:54.175Z,12.91
2023-03-26T10:02:46.138Z,12.98
2023-03-26T10:05:53.660Z,12.77
2023-03-26T10:08:28.845Z,13.03
2023-03-26T10:11:05.947Z,12.94
2023-03-26T10:13:56.405Z,13.05
2023-03-26T10:16:42.454Z,13.12
2023-03-26T10:19:19.149Z,13.35
2023-03-26T10:22:17.949Z,13.41
2023-03-26T10:25:04.921Z,13.25
2023-03-26T10:27:37.897Z,13.31
2023-03-26T10:30:23.436Z,13.25
2023-03-26T10:33:06.040Z,13.22
2023-03-26T10:35:47.433Z,13.35
2023-03-26T10:38:30.174Z,13.24
2023-03-26T10:41:13.769Z,13.22
2023-03-26T10:44:07.417Z,13.61
2023-03-26T10:46:45.081Z,13.51
2023-03-26T10:49:33.853Z,13.36
2023-03-26T10:52:03.945Z,13.51
2023-03-26T10:54:56.711Z,13.51
2023-03-26T10:57:26.859Z,13.36
2023-03-26T10:59:56.048Z,13.43
2023-03-26T11:02:31.089Z,13.58
2023-03-26T11:05:07.559Z,13.79
2023-03-26T11:07:51.880Z,13.87
2023-03-26T11:10:28.497Z,14.04
2023-03-26T11:13:14.373Z,14.10
2023-03-26T11:15:59.064Z,13.96
2023-03-26T11:18:43.750Z,13.91
2023-03-26T11:21:20.834Z,14.17
2023-03-26T11:24:05.571Z,14.22
2023-03-26T11:26:42.743Z,14.24
2023-03-26T11:29:33.715Z,14.54
2023-03-26T11:32:10.725Z,14.04
2023-03-26T11:35:01.861Z,13.99
2023-03-26T11:37:42.692Z,14.13
2023-03-26T11:40:14.361Z,14.25
2023-03-26T11:42:41.626Z,14.11
2023-03-26T11:45:15.546Z,14.31
2023-03-26T11:47:52.065Z,14.57
2023-03-26T11:50:25.772Z,14.67
2023-03-26T11:52:57.458Z,14.98
2023-03-26T11:55:25.145Z,15.03
2023-03-26T11:57:54.262Z,15.41
2023-03-26T12:00:23.173Z,15.48
2023-03-26T12:02:50.898Z,15.37
2023-03-26T12:05:25.112Z,15.11
2023-03-26T12:07:59.595Z,15.26
2023-03-26T12:10:34.916Z,15.41
2023-03-26T12:13:06.608Z,15.82
2023-03-26T12:15:33.946Z,16.18
2023-03-26T12:18:20.009Z,16.15
2023-03-26T12:20:48.316Z,16.53
2023-03-26T12:23:35.025Z,16.89
2023-03-26T12:26:14.467Z,16.78
2023-03-26T12:28:49.768Z,16.61
2023-03-26T12:31:20.950Z,16.50
2023-03-26T12:34:04.577Z,16.27
2023-03-26T12:36:33.449Z,16.02
2023-03-26T12:39:17.033Z,16.15
2023-03-26T12:43:51.614Z,16.22
2023-03-26T12:44:58.778Z,16.10
2023-03-26T12:47:57.562Z,16.23
2023-03-26T12:50:34.573Z,16.43
2023-03-26T12:53:07.353Z,16.50
2023-03-26T12:55:44.180Z,16.87
2023-03-26T12:58:42.452Z,16.91
2023-03-26T13:01:20.186Z,16.91
2023-03-26T13:04:17.321Z,16.61
2023-03-26T13:07:00.649Z,16.47
2023-03-26T13:09:47.500Z,17.00
2023-03-26T13:12:38.257Z,17.36
2023-03-26T13:15:23.977Z,17.61
2023-03-26T13:18:04.426Z,17.65
2023-03-26T13:20:43.363Z,17.49
2023-03-26T13:23:27.308Z,17.35
2023-03-26T13:26:00.934Z,17.39
2023-03-26T13:28:31.956Z,17.57
2023-03-26T13:31:04.794Z,17.29
2023-03-26T13:33:34.950Z,17.19
2023-03-26T13:36:34.845Z,16.98
2023-03-26T13:39:27.306Z,17.18
2023-03-26T13:42:18.387Z,17.18
2023-03-26T13:45:20.406Z,17.18
2023-03-26T13:47:49.484Z,16.89
2023-03-26T13:50:27.190Z,16.76
2023-03-26T13:53:00.658Z,16.78
2023-03-26T13:55:36.096Z,16.61
2023-03-26T13:58:11.179Z,16.68
2023-03-26T14:01:04.085Z,16.74
2023-03-26T14:03:47.321Z,16.78
2023-03-26T14:06:34.215Z,16.73
2023-03-26T14:09:23.887Z,16.91
2023-03-26T14:11:57.860Z,16.64
2023-03-26T14:15:04.471Z,16.68
2023-03-26T14:17:47.582Z,16.71
2023-03-26T14:20:18.039Z,16.74
2023-03-26T14:23:21.265Z,16.77
2023-03-26T14:26:01.130Z,16.66
2023-03-26T14:29:05.788Z,16.57
2023-03-26T14:31:54.299Z,16.47
2023-03-26T14:34:42.841Z,16.59
2023-03-26T14:37:33.038Z,16.57
2023-03-26T14:40:26.113Z,16.45
2023-03-26T14:42:56.388Z,16.56
2023-03-26T14:45:32.106Z,16.34
2023-03-26T14:48:17.453Z,16.32
2023-03-26T14:51:09.072Z,16.22
2023-03-26T14:53:38.366Z,16.19
2023-03-26T14:56:08.855Z,16.18
2023-03-26T14:58:53.889Z,16.13
2023-03-26T15:01:51.803Z,16.23
2023-03-26T15:04:34.635Z,16.25
2023-03-26T15:07:23.269Z,16.39
2023-03-26T15:10:17.887Z,16.40
2023-03-26T15:13:01.926Z,16.33
2023-03-26T15:15:44.457Z,16.33
2023-03-26T15:18:43.428Z,16.43
2023-03-26T15:21:13.615Z,16.42
2023-03-26T15:24:26.964Z,16.26
2023-03-26T15:27:22.653Z,16.20
2023-03-26T15:30:14.383Z,16.20
2023-03-26T15:33:19.126Z,16.26
2023-03-26T15:36:13.946Z,16.08
2023-03-26T15:39:03.689Z,16.09
2023-03-26T15:41:55.457Z,16.20
2023-03-26T15:44:53.574Z,16.22
2023-03-26T15:47:47.849Z,16.20
2023-03-26T15:50:47.319Z,16.01
2023-03-26T15:54:02.527Z,16.04
2023-03-26T15:56:49.306Z,15.99
2023-03-26T15:59:28.923Z,15.97
2023-03-26T16:02:05.073Z,15.87
2023-03-26T16:04:54.234Z,15.84
2023-03-26T16:07:24.945Z,15.82
2023-03-26T16:09:55.210Z,15.85
2023-03-26T16:12:29.859Z,15.71
2023-03-26T16:15:07.356Z,15.71
2023-03-26T16:18:09.442Z,15.65
2023-03-26T16:20:54.382Z,15.68
2023-03-26T16:23:47.754Z,15.57
2023-03-26T16:26:27.830Z,15.58
2023-03-26T16:29:02.421Z,15.62
2023-03-26T16:31:38.066Z,15.53
2023-03-26T16:34:09.268Z,15.44
2023-03-26T16:36:37.972Z,15.54
2023-03-26T16:39:08.597Z,15.41
2023-03-26T16:41:38.874Z,15.40
2023-03-26T16:44:30.482Z,15.41
2023-03-26T16:47:34.046Z,15.34
2023-03-26T16:50:30.115Z,15.40
2023-03-26T16:52:58.895Z,15.34
2023-03-26T16:55:26.470Z,15.47
2023-03-26T16:58:10.475Z,15.44
2023-03-26T17:00:42.650Z,15.40
2023-03-26T17:03:27.231Z,15.37
2023-03-26T17:05:56.673Z,15.33
2023-03-26T17:08:55.411Z,15.38
2023-03-26T17:11:47.410Z,15.27
2023-03-26T17:14:39.735Z,15.37
2023-03-26T17:17:47.390Z,15.16
2023-03-26T17:20:35.907Z,15.14
2023-03-26T17:23:11.144Z,15.03
2023-03-26T17:26:01.438Z,14.96
2023-03-26T17:28:52.728Z,15.00
2023-03-26T17:31:26.462Z,14.90
2023-03-26T17:33:53.943Z,14.90
2023-03-26T17:36:39.792Z,14.93
2023-03-26T17:39:39.368Z,14.85
2023-03-26T17:42:20.017Z,14.89
2023-03-26T17:45:01.512Z,14.86
2023-03-26T17:47:41.311Z,14.85
2023-03-26T17:50:14.818Z,14.78
2023-03-26T17:52:51.679Z,14.68
2023-03-26T17:55:25.880Z,14.85
2023-03-26T17:57:54.494Z,14.80
2023-03-26T18:00:23.680Z,14.85
2023-03-26T18:03:21.684Z,14.80
2023-03-26T18:05:49.402Z,14.68
2023-03-26T18:08:37.176Z,14.51
2023-03-26T18:11:10.565Z,14.49
2023-03-26T18:13:52.954Z,14.55
2023-03-26T18:16:21.390Z,14.45
2023-03-26T18:18:58.087Z,14.34
2023-03-26T18:21:32.955Z,14.27
2023-03-26T18:24:00.597Z,14.11
2023-03-26T18:26:47.283Z,13.87
2023-03-26T18:29:27.839Z,13.25
2023-03-26T18:32:00.703Z,13.18
2023-03-26T18:34:32.669Z,13.00
2023-03-26T18:37:03.192Z,12.76
2023-03-26T18:39:30.557Z,12.53
2023-03-26T18:41:58.176Z,12.32
2023-03-26T18:44:25.546Z,12.15
2023-03-26T18:46:54.905Z,12.06
2023-03-26T18:49:22.677Z,12.01
2023-03-26T18:51:56.718Z,11.95
2023-03-26T18:54:24.976Z,12.05
2023-03-26T18:56:52.795Z,12.02
2023-03-26T18:59:32.804Z,12.06
2023-03-26T19:02:00.291Z,12.14
2023-03-26T19:04:28.236Z,12.05
2023-03-26T19:06:55.713Z,11.96
2023-03-26T19:09:31.615Z,11.99
2023-03-26T19:12:06.098Z,11.88
2023-03-26T19:14:37.149Z,11.85
2023-03-26T19:17:05.485Z,11.87
2023-03-26T19:19:34.177Z,11.88
2023-03-26T19:22:01.796Z,11.67
2023-03-26T19:24:29.146Z,11.56
2023-03-26T19:26:56.506Z,11.30
2023-03-26T19:29:31.937Z,11.20
2023-03-26T19:32:19.212Z,11.16
2023-03-26T19:34:47.146Z,11.15
2023-03-26T19:37:25.289Z,11.10
2023-03-26T19:40:01.684Z,11.05
2023-03-26T19:42:43.478Z,10.91
2023-03-26T19:45:19.814Z,10.82
2023-03-26T19:50:36.744Z,10.64
2023-03-26T19:51:18.658Z,10.78
2023-03-26T19:53:16.722Z,10.58
2023-03-26T19:56:05.264Z,10.52
2023-03-26T19:58:35.448Z,10.54
2023-03-26T20:01:03.693Z,10.55
2023-03-26T20:03:38.214Z,10.51
2023-03-26T20:06:05.931Z,10.55
2023-03-26T20:08:33.521Z,10.52
2023-03-26T20:11:00.834Z,10.42
2023-03-26T20:13:28.313Z,10.40
2023-03-26T20:16:07.708Z,10.38
2023-03-26T20:18:35.269Z,10.25
2023-03-26T20:21:05.546Z,10.31
2023-03-26T20:23:32.768Z,10.34
2023-03-26T20:26:00.160Z,10.31
2023-03-26T20:28:27.433Z,10.38
2023-03-26T20:30:55.103Z,10.38
2023-03-26T20:33:26.747Z,10.38
2023-03-26T20:35:55.391Z,10.30
2023-03-26T20:38:36.720Z,10.34
2023-03-26T20:41:07.369Z,10.31
2023-03-26T20:43:34.695Z,10.30
2023-03-26T20:46:02.586Z,10.36
2023-03-26T20:48:30.086Z,10.36
2023-03-26T20:50:57.363Z,10.28
2023-03-26T20:53:25.056Z,10.37
2023-03-26T20:55:52.340Z,10.34
2023-03-26T20:58:31.257Z,10.37
2023-03-26T21:01:00.801Z,10.31
2023-03-26T21:03:28.242Z,10.22
2023-03-26T21:06:02.624Z,10.18
2023-03-26T21:08:36.856Z,10.18
2023-03-26T21:11:05.586Z,10.16
2023-03-26T21:13:39.801Z,10.10
2023-03-26T21:16:08.180Z,10.10
2023-03-26T21:18:36.936Z,10.10
2023-03-26T21:21:32.186Z,10.00
2023-03-26T21:24:24.014Z,9.97
2023-03-26T21:27:28.499Z,10.01
2023-03-26T21:29:56.274Z,10.00
2023-03-26T21:32:24.305Z,10.06
2023-03-26T21:34:58.780Z,10.09
2023-03-26T21:37:27.158Z,10.07
2023-03-26T21:39:54.605Z,10.01
2023-03-26T21:42:22.098Z,10.04
2023-03-26T21:44:49.578Z,10.03
2023-03-26T21:47:16.928Z,10.01
2023-03-26T21:49:44.525Z,10.07
2023-03-26T21:52:15.159Z,10.07
2023-03-26T21:54:43.360Z,10.06
2023-03-26T21:57:31.980Z,10.11
2023-03-26T22:00:18.546Z,10.25
2023-03-26T22:02:59.657Z,10.17
2023-03-26T22:05:32.915Z,10.11
2023-03-26T22:08:01.813Z,10.07
2023-03-26T22:10:29.797Z,10.16
2023-03-26T22:12:57.295Z,10.22
2023-03-26T22:15:30.482Z,10.25
2023-03-26T22:18:02.037Z,10.31
2023-03-26T22:20:29.500Z,10.45
2023-03-26T22:22:56.872Z,10.40
2023-03-26T22:25:24.241Z,10.24
2023-03-26T22:27:51.630Z,10.01
2023-03-26T22:30:20.795Z,9.80
2023-03-26T22:32:48.782Z,9.69
2023-03-26T22:35:16.335Z,9.58
2023-03-26T22:37:43.673Z,9.49
2023-03-26T22:40:13.529Z,9.43
2023-03-26T22:42:41.372Z,9.56
2023-03-26T22:45:09.521Z,9.66
2023-03-26T22:47:37.149Z,9.90
2023-03-26T22:50:06.007Z,9.99
2023-03-26T22:52:34.184Z,10.06
2023-03-26T22:55:01.527Z,10.24
2023-03-26T22:57:28.990Z,10.33
2023-03-26T22:59:56.360Z,10.36
2023-03-26T23:02:23.638Z,10.25
2023-03-26T23:04:50.986Z,10.27
2023-03-26T23:07:18.401Z,10.21
2023-03-26T23:09:45.754Z,10.33
2023-03-26T23:12:13.048Z,10.34
2023-03-26T23:14:41.575Z,10.30
2023-03-26T23:17:14.712Z,10.27
2023-03-26T23:19:43.942Z,10.37
2023-03-26T23:22:11.287Z,10.57
2023-03-26T23:24:39.587Z,10.61
2023-03-26T23:27:07.214Z,10.58
2023-03-26T23:29:34.479Z,10.65
2023-03-26T23:32:02.205Z,10.64
2023-03-26T23:34:29.460Z,10.67
2023-03-26T23:36:58.076Z,10.47
2023-03-26T23:39:26.797Z,10.31
2023-03-26T23:41:54.150Z,10.36
2023-03-26T23:44:21.460Z,10.30
2023-03-26T23:46:57.959Z,10.30
2023-03-26T23:49:25.610Z,10.28
2023-03-26T23:51:53.861Z,10.28
2023-03-26T23:54:21.676Z,10.07
2023-03-26T23:56:49.330Z,9.87
2023-03-26T23:59:17.088Z,9.93
